createdAt,value
2022-10-30T00:00:18.795Z,5.30
2022-10-30T00:03:06.570Z,5.27
2022-10-30T00:05:54.166Z,4.83
2022-10-30T00:08:41.663Z,4.77
2022-10-30T00:11:30.482Z,4.87
2022-10-30T00:14:18.280Z,4.53
2022-10-30T00:17:05.618Z,4.63
2022-10-30T00:19:52.931Z,5.10
2022-10-30T00:22:40.307Z,4.10
2022-10-30T00:25:27.674Z,4.10
2022-10-30T00:28:16.542Z,4.00
2022-10-30T00:31:06.054Z,4.30
2022-10-30T00:33:54.983Z,4.60
2022-10-30T00:36:42.397Z,4.10
2022-10-30T00:39:29.993Z,3.90
2022-10-30T00:42:18.174Z,3.80
2022-10-30T00:45:08.565Z,4.13
2022-10-30T00:48:01.348Z,4.80
2022-10-30T00:50:49.571Z,4.50
2022-10-30T00:53:37.315Z,4.20
2022-10-30T00:56:25.651Z,3.63
2022-10-30T00:59:18.415Z,4.20
2022-10-30T01:02:09.408Z,3.90
2022-10-30T01:04:57.155Z,3.30
2022-10-30T01:07:45.234Z,3.83
2022-10-30T01:10:32.726Z,3.27
2022-10-30T01:13:24.178Z,3.73
2022-10-30T01:16:39.448Z,3.90
2022-10-30T01:19:42.048Z,4.17
2022-10-30T01:22:49.479Z,3.53
2022-10-30T01:25:52.780Z,4.13
2022-10-30T01:29:03.047Z,4.50
2022-10-30T01:32:13.125Z,4.97
2022-10-30T01:35:11.849Z,3.93
2022-10-30T01:38:09.735Z,4.37
2022-10-30T01:40:57.398Z,4.60
2022-10-30T01:43:48.331Z,4.27
2022-10-30T01:46:54.115Z,4.53
2022-10-30T01:50:12.039Z,4.63
2022-10-30T01:53:13.195Z,4.27
2022-10-30T01:56:19.689Z,4.60
2022-10-30T01:59:15.777Z,5.30
2022-10-30T02:02:03.325Z,5.00
2022-10-30T02:04:52.875Z,4.83
2022-10-30T02:07:41.641Z,4.40
2022-10-30T02:10:32.191Z,4.63
2022-10-30T02:13:20.231Z,4.50
2022-10-30T02:16:09.284Z,4.20
2022-10-30T02:18:56.819Z,4.20
2022-10-30T02:21:45.535Z,3.77
2022-10-30T02:24:34.539Z,4.43
2022-10-30T02:27:21.957Z,4.60
2022-10-30T02:30:10.684Z,3.43
2022-10-30T02:32:58.512Z,4.03
2022-10-30T02:35:46.475Z,3.50
2022-10-30T02:38:35.239Z,3.93
2022-10-30T02:41:23.004Z,4.03
2022-10-30T02:44:10.593Z,4.27
2022-10-30T02:46:58.148Z,4.23
2022-10-30T02:49:45.354Z,3.93
2022-10-30T02:52:33.229Z,4.10
2022-10-30T02:55:22.063Z,3.80
2022-10-30T02:58:10.054Z,3.80
2022-10-30T03:00:57.885Z,4.13
2022-10-30T03:03:46.333Z,3.90
2022-10-30T03:06:34.527Z,4.07
2022-10-30T03:09:21.990Z,4.00
2022-10-30T03:12:10.556Z,4.33
2022-10-30T03:14:58.259Z,4.57
2022-10-30T03:17:45.662Z,4.17
2022-10-30T03:20:33.075Z,4.23
2022-10-30T03:23:20.825Z,4.30
2022-10-30T03:26:08.811Z,4.07
2022-10-30T03:29:05.375Z,3.80
2022-10-30T03:31:53.548Z,3.70
2022-10-30T03:34:42.096Z,3.80
2022-10-30T03:37:29.846Z,3.73
2022-10-30T03:40:17.589Z,3.43
2022-10-30T03:43:05.524Z,3.93
2022-10-30T03:45:56.300Z,3.80
2022-10-30T03:48:43.716Z,4.03
2022-10-30T03:51:34.438Z,3.43
2022-10-30T03:54:21.722Z,4.17
2022-10-30T03:57:09.521Z,4.07
2022-10-30T04:00:11.208Z,3.63
2022-10-30T04:03:03.235Z,4.23
2022-10-30T04:05:51.753Z,4.10
2022-10-30T04:08:39.588Z,4.03
2022-10-30T04:11:27.134Z,4.10
2022-10-30T04:14:14.495Z,4.33
2022-10-30T04:17:06.141Z,4.30
2022-10-30T04:19:55.356Z,4.47
2022-10-30T04:22:42.638Z,4.27
2022-10-30T04:25:30.218Z,4.10
2022-10-30T04:28:21.340Z,5.13
2022-10-30T04:31:09.106Z,4.90
2022-10-30T04:33:56.447Z,4.83
2022-10-30T04:36:45.235Z,5.03
2022-10-30T04:39:32.979Z,4.90
2022-10-30T04:42:30.785Z,4.30
2022-10-30T04:45:19.075Z,4.33
2022-10-30T04:48:09.457Z,5.00
2022-10-30T04:50:59.941Z,5.13
2022-10-30T04:53:49.242Z,4.97
2022-10-30T04:56:37.269Z,3.87
2022-10-30T04:59:24.844Z,4.27
2022-10-30T05:02:14.389Z,4.40
2022-10-30T05:05:01.887Z,4.90
2022-10-30T05:07:49.451Z,4.23
2022-10-30T05:10:41.840Z,4.53
2022-10-30T05:13:29.033Z,3.87
2022-10-30T05:16:16.352Z,4.00
2022-10-30T05:19:04.749Z,4.07
2022-10-30T05:21:54.369Z,3.87
2022-10-30T05:24:41.978Z,4.60
2022-10-30T05:27:30.671Z,4.53
2022-10-30T05:30:18.681Z,4.47
2022-10-30T05:33:11.065Z,4.60
2022-10-30T05:35:59.734Z,4.37
2022-10-30T05:38:48.271Z,4.37
2022-10-30T05:41:45.254Z,3.50
2022-10-30T05:44:55.091Z,3.53
2022-10-30T05:47:43.162Z,3.63
2022-10-30T05:50:32.603Z,3.73
2022-10-30T05:53:43.218Z,3.97
2022-10-30T05:56:31.728Z,3.87
2022-10-30T05:59:21.621Z,3.47
2022-10-30T06:02:10.685Z,3.40
2022-10-30T06:04:40.012Z,3.40
2022-10-30T06:07:13.695Z,3.50
2022-10-30T06:09:42.822Z,3.43
2022-10-30T06:12:24.002Z,3.57
2022-10-30T06:15:06.780Z,3.50
2022-10-30T06:17:37.195Z,3.27
2022-10-30T06:20:28.342Z,3.20
2022-10-30T06:23:17.640Z,3.33
2022-10-30T06:25:54.141Z,3.90
2022-10-30T06:28:33.704Z,3.53
2022-10-30T06:31:03.023Z,3.80
2022-10-30T06:33:35.164Z,3.60
2022-10-30T06:36:04.972Z,3.47
2022-10-30T06:38:35.157Z,4.17
2022-10-30T06:41:04.509Z,4.60
2022-10-30T06:43:43.373Z,3.53
2022-10-30T06:46:19.028Z,3.23
2022-10-30T06:48:49.736Z,3.40
2022-10-30T06:51:20.808Z,4.67
2022-10-30T06:53:49.973Z,5.57
2022-10-30T06:56:39.249Z,7.80
2022-10-30T06:59:28.655Z,6.17
2022-10-30T07:02:27.539Z,4.33
2022-10-30T07:05:01.139Z,3.77
2022-10-30T07:07:31.305Z,4.23
2022-10-30T07:10:01.593Z,4.70
2022-10-30T07:12:56.509Z,3.70
2022-10-30T07:16:01.415Z,3.67
2022-10-30T07:18:38.057Z,4.07
2022-10-30T07:21:09.470Z,3.90
2022-10-30T07:23:39.723Z,3.50
2022-10-30T07:26:24.483Z,3.00
2022-10-30T07:28:55.510Z,2.87
2022-10-30T07:31:57.485Z,2.73
2022-10-30T07:34:51.082Z,2.87
2022-10-30T07:37:50.634Z,2.57
2022-10-30T07:40:19.867Z,2.87
2022-10-30T07:43:07.572Z,2.60
2022-10-30T07:46:02.613Z,2.47
2022-10-30T07:48:48.718Z,2.40
2022-10-30T07:51:26.444Z,3.07
2022-10-30T07:53:57.256Z,2.50
2022-10-30T07:56:27.420Z,2.90
2022-10-30T07:58:59.328Z,3.40
2022-10-30T08:01:47.136Z,3.10
2022-10-30T08:04:27.479Z,3.30
2022-10-30T08:07:02.843Z,2.70
2022-10-30T08:09:33.311Z,2.70
2022-10-30T08:12:04.321Z,2.67
2022-10-30T08:14:34.948Z,2.57
2022-10-30T08:17:05.160Z,2.60
2022-10-30T08:19:34.398Z,2.27
2022-10-30T08:22:03.389Z,2.43
2022-10-30T08:24:38.527Z,2.30
2022-10-30T08:27:07.913Z,2.60
2022-10-30T08:29:37.695Z,2.27
2022-10-30T08:32:07.635Z,2.30
2022-10-30T08:34:39.200Z,2.50
2022-10-30T08:37:09.376Z,2.60
2022-10-30T08:39:39.923Z,3.00
2022-10-30T08:42:28.595Z,2.50
2022-10-30T08:45:00.152Z,2.83
2022-10-30T08:47:29.157Z,2.80
2022-10-30T08:49:58.555Z,2.70
2022-10-30T08:52:30.804Z,2.90
2022-10-30T08:55:01.263Z,2.80
2022-10-30T08:57:37.344Z,2.70
2022-10-30T09:00:08.006Z,2.60
2022-10-30T09:03:03.220Z,2.57
2022-10-30T09:05:35.382Z,2.53
2022-10-30T09:08:24.360Z,2.67
2022-10-30T09:10:58.647Z,3.00
2022-10-30T09:13:28.442Z,2.60
2022-10-30T09:16:01.487Z,2.90
2022-10-30T09:18:33.039Z,3.00
2022-10-30T09:21:04.994Z,3.43
2022-10-30T09:23:39.296Z,3.00
2022-10-30T09:26:33.072Z,2.88
2022-10-30T09:29:25.451Z,2.80
2022-10-30T09:32:11.145Z,3.08
2022-10-30T09:34:51.657Z,2.97
2022-10-30T09:37:27.573Z,3.13
2022-10-30T09:40:01.655Z,2.58
2022-10-30T09:42:45.136Z,3.13
2022-10-30T09:45:52.301Z,3.10
2022-10-30T09:48:50.356Z,2.35
2022-10-30T09:52:12.948Z,3.05
2022-10-30T09:54:57.243Z,2.92
2022-10-30T09:57:38.895Z,3.03
2022-10-30T10:00:14.200Z,3.15
2022-10-30T10:03:00.517Z,2.85
2022-10-30T10:05:45.119Z,2.55
2022-10-30T10:08:40.791Z,2.50
2022-10-30T10:11:35.333Z,2.40
2022-10-30T10:14:10.407Z,2.38
2022-10-30T10:16:43.411Z,2.30
2022-10-30T10:19:21.470Z,2.22
2022-10-30T10:21:57.715Z,2.13
2022-10-30T10:24:31.012Z,2.30
2022-10-30T10:27:10.241Z,2.50
2022-10-30T10:29:51.663Z,2.42
2022-10-30T10:32:51.244Z,2.88
2022-10-30T10:35:59.270Z,2.40
2022-10-30T10:38:47.825Z,2.97
2022-10-30T10:41:28.537Z,2.50
2022-10-30T10:44:20.348Z,2.78
2022-10-30T10:47:07.524Z,2.50
2022-10-30T10:49:55.608Z,2.00
2022-10-30T10:52:27.147Z,2.45
2022-10-30T10:54:59.419Z,2.38
2022-10-30T10:57:34.303Z,3.10
2022-10-30T11:00:07.889Z,2.88
2022-10-30T11:02:42.675Z,2.25
2022-10-30T11:05:26.782Z,2.08
2022-10-30T11:08:04.834Z,2.80
2022-10-30T11:10:33.973Z,2.45
2022-10-30T11:13:03.038Z,2.83
2022-10-30T11:15:44.025Z,2.40
2022-10-30T11:18:14.712Z,2.67
2022-10-30T11:20:55.666Z,2.72
2022-10-30T11:23:39.934Z,2.60
2022-10-30T11:26:41.992Z,2.20
2022-10-30T11:29:15.565Z,2.45
2022-10-30T11:31:47.214Z,2.35
2022-10-30T11:34:34.291Z,2.65
2022-10-30T11:37:06.297Z,2.13
2022-10-30T11:39:36.523Z,2.67
2022-10-30T11:42:13.082Z,2.75
2022-10-30T11:44:45.358Z,2.20
2022-10-30T11:47:15.804Z,2.55
2022-10-30T11:49:49.217Z,2.95
2022-10-30T11:52:22.880Z,2.42
2022-10-30T11:54:55.811Z,2.72
2022-10-30T11:57:32.241Z,2.88
2022-10-30T12:00:05.283Z,1.90
2022-10-30T12:02:46.035Z,2.40
2022-10-30T12:05:32.882Z,2.15
2022-10-30T12:08:23.275Z,1.63
2022-10-30T12:11:02.758Z,2.08
2022-10-30T12:13:39.677Z,1.92
2022-10-30T12:16:15.260Z,2.30
2022-10-30T12:18:54.479Z,1.75
2022-10-30T12:21:23.603Z,2.30
2022-10-30T12:23:58.227Z,2.22
2022-10-30T12:26:27.700Z,2.08
2022-10-30T12:29:01.386Z,2.13
2022-10-30T12:31:39.007Z,2.15
2022-10-30T12:34:29.277Z,2.10
2022-10-30T12:37:06.103Z,2.20
2022-10-30T12:39:58.171Z,2.03
2022-10-30T12:42:28.877Z,1.85
2022-10-30T12:45:15.212Z,2.00
2022-10-30T12:47:50.853Z,1.80
2022-10-30T12:50:25.424Z,1.60
2022-10-30T12:53:01.950Z,1.63
2022-10-30T12:55:39.657Z,1.73
2022-10-30T12:58:19.948Z,1.50
2022-10-30T13:01:01.885Z,1.60
2022-10-30T13:03:37.363Z,1.60
2022-10-30T13:06:15.975Z,1.88
2022-10-30T13:08:55.920Z,1.55
2022-10-30T13:11:39.931Z,1.70
2022-10-30T13:14:17.645Z,1.60
2022-10-30T13:16:46.850Z,1.98
2022-10-30T13:19:15.853Z,1.50
2022-10-30T13:21:55.978Z,2.00
2022-10-30T13:24:47.806Z,2.10
2022-10-30T13:27:24.826Z,2.00
2022-10-30T13:30:01.724Z,2.08
2022-10-30T13:32:42.543Z,2.30
2022-10-30T13:35:25.755Z,1.98
2022-10-30T13:38:04.078Z,1.95
2022-10-30T13:40:37.385Z,1.88
2022-10-30T13:43:23.061Z,1.90
2022-10-30T13:46:24.091Z,1.98
2022-10-30T13:49:10.964Z,2.20
2022-10-30T13:51:45.316Z,2.08
2022-10-30T13:54:21.843Z,1.63
2022-10-30T13:56:53.083Z,2.08
2022-10-30T13:59:48.328Z,1.77
2022-10-30T14:02:33.264Z,2.00
2022-10-30T14:05:15.770Z,1.65
2022-10-30T14:07:54.000Z,2.05
2022-10-30T14:10:46.215Z,2.20
2022-10-30T14:13:26.854Z,1.65
2022-10-30T14:16:02.418Z,1.60
2022-10-30T14:18:46.427Z,1.83
2022-10-30T14:21:46.143Z,1.88
2022-10-30T14:24:19.754Z,1.60
2022-10-30T14:26:53.314Z,1.70
2022-10-30T14:29:48.093Z,1.98
2022-10-30T14:32:50.818Z,1.98
2022-10-30T14:35:41.138Z,1.80
2022-10-30T14:38:27.303Z,1.65
2022-10-30T14:41:32.928Z,1.75
2022-10-30T14:44:27.455Z,1.48
2022-10-30T14:47:47.439Z,1.98
2022-10-30T14:50:34.441Z,1.88
2022-10-30T14:53:35.503Z,1.70
2022-10-30T14:56:12.886Z,1.65
2022-10-30T14:58:42.507Z,1.75
2022-10-30T15:01:38.047Z,1.85
2022-10-30T15:04:22.601Z,1.58
2022-10-30T15:07:01.553Z,1.52
2022-10-30T15:09:44.966Z,1.77
2022-10-30T15:13:02.829Z,2.08
2022-10-30T15:15:32.599Z,2.00
2022-10-30T15:18:09.762Z,1.92
2022-10-30T15:20:40.583Z,1.65
2022-10-30T15:23:19.026Z,1.77
2022-10-30T15:25:52.487Z,2.10
2022-10-30T15:31:02.209Z,2.33
2022-10-30T15:33:32.957Z,2.45
2022-10-30T15:36:02.284Z,2.58
2022-10-30T15:38:32.951Z,2.10
2022-10-30T15:41:04.446Z,2.45
2022-10-30T15:43:37.076Z,2.13
2022-10-30T15:46:10.857Z,2.40
2022-10-30T15:48:43.031Z,2.30
2022-10-30T15:51:18.094Z,1.90
2022-10-30T15:53:52.426Z,2.00
2022-10-30T15:56:26.397Z,2.45
2022-10-30T15:59:00.304Z,2.40
2022-10-30T16:01:33.535Z,2.55
2022-10-30T16:04:02.864Z,2.88
2022-10-30T16:06:33.513Z,2.72
2022-10-30T16:09:05.967Z,2.83
2022-10-30T16:11:35.116Z,3.53
2022-10-30T16:14:09.756Z,3.67
2022-10-30T16:16:38.865Z,3.90
2022-10-30T16:19:08.259Z,3.88
2022-10-30T16:21:37.447Z,4.43
2022-10-30T16:24:10.246Z,4.60
2022-10-30T16:26:39.992Z,6.67
2022-10-30T16:29:24.131Z,5.60
2022-10-30T16:31:53.914Z,5.27
2022-10-30T16:34:31.961Z,5.00
2022-10-30T16:37:03.013Z,4.23
2022-10-30T16:39:35.283Z,3.47
2022-10-30T16:42:05.371Z,3.60
2022-10-30T16:44:35.889Z,3.50
2022-10-30T16:47:24.420Z,3.10
2022-10-30T16:49:57.383Z,2.80
2022-10-30T16:52:31.034Z,3.60
2022-10-30T16:55:06.294Z,3.70
2022-10-30T16:57:39.415Z,3.37
2022-10-30T17:00:23.171Z,3.50
2022-10-30T17:02:57.301Z,3.73
2022-10-30T17:05:29.794Z,3.10
2022-10-30T17:08:02.186Z,3.17
2022-10-30T17:10:36.499Z,3.40
2022-10-30T17:13:32.866Z,3.40
2022-10-30T17:16:25.741Z,3.67
2022-10-30T17:18:56.873Z,3.03
2022-10-30T17:21:29.859Z,3.20
2022-10-30T17:24:01.238Z,3.10
2022-10-30T17:26:37.289Z,3.30
2022-10-30T17:29:06.590Z,4.10
2022-10-30T17:31:44.808Z,3.53
2022-10-30T17:34:23.690Z,3.73
2022-10-30T17:36:54.775Z,4.00
2022-10-30T17:39:24.056Z,3.63
2022-10-30T17:41:57.951Z,3.90
2022-10-30T17:44:28.788Z,4.00
2022-10-30T17:46:58.037Z,3.97
2022-10-30T17:49:31.032Z,4.40
2022-10-30T17:52:02.440Z,4.40
2022-10-30T17:54:31.808Z,4.30
2022-10-30T17:57:02.283Z,4.00
2022-10-30T17:59:31.551Z,3.60
2022-10-30T18:02:01.390Z,4.30
2022-10-30T18:04:30.943Z,3.80
2022-10-30T18:07:00.041Z,3.23
2022-10-30T18:09:29.276Z,4.03
2022-10-30T18:11:58.374Z,3.60
2022-10-30T18:14:28.991Z,3.20
2022-10-30T18:16:58.170Z,3.00
2022-10-30T18:19:27.468Z,4.03
2022-10-30T18:21:56.623Z,3.60
2022-10-30T18:24:25.806Z,4.20
2022-10-30T18:26:55.550Z,4.70
2022-10-30T18:29:24.783Z,4.30
2022-10-30T18:31:55.311Z,4.77
2022-10-30T18:34:24.583Z,4.23
2022-10-30T18:36:53.757Z,3.93
2022-10-30T18:39:23.054Z,4.87
2022-10-30T18:41:53.752Z,4.70
2022-10-30T18:44:23.046Z,4.60
2022-10-30T18:46:52.238Z,4.40
2022-10-30T18:49:24.509Z,3.87
2022-10-30T18:51:53.726Z,4.00
2022-10-30T18:54:22.888Z,3.90
2022-10-30T18:56:52.084Z,4.20
2022-10-30T18:59:21.437Z,3.43
2022-10-30T19:01:50.719Z,3.77
2022-10-30T19:04:22.437Z,3.63
2022-10-30T19:06:53.279Z,3.70
2022-10-30T19:09:22.640Z,4.53
2022-10-30T19:11:51.761Z,4.80
2022-10-30T19:14:20.936Z,5.03
2022-10-30T19:16:50.108Z,5.10
2022-10-30T19:19:19.385Z,4.90
2022-10-30T19:21:48.597Z,4.53
2022-10-30T19:24:19.352Z,4.40
2022-10-30T19:26:48.527Z,4.57
2022-10-30T19:29:17.776Z,4.80
2022-10-30T19:31:46.990Z,4.00
2022-10-30T19:34:16.175Z,4.20
2022-10-30T19:36:45.298Z,5.33
2022-10-30T19:39:16.825Z,5.10
2022-10-30T19:41:47.482Z,5.40
2022-10-30T19:44:16.965Z,5.80
2022-10-30T19:46:46.116Z,5.90
2022-10-30T19:49:19.161Z,6.00
2022-10-30T19:51:49.168Z,5.17
2022-10-30T19:54:18.339Z,5.40
2022-10-30T19:56:48.888Z,5.17
2022-10-30T19:59:18.120Z,5.37
2022-10-30T20:01:47.425Z,5.67
2022-10-30T20:04:16.680Z,5.90
2022-10-30T20:06:45.923Z,6.10
2022-10-30T20:09:15.225Z,6.60
2022-10-30T20:11:44.488Z,6.33
2022-10-30T20:14:15.069Z,5.77
2022-10-30T20:16:44.306Z,5.77
2022-10-30T20:19:28.733Z,6.33
2022-10-30T20:21:58.252Z,6.60
2022-10-30T20:24:27.428Z,6.10
2022-10-30T20:26:58.119Z,7.10
2022-10-30T20:29:29.097Z,6.60
2022-10-30T20:31:58.339Z,5.73
2022-10-30T20:34:27.555Z,5.87
2022-10-30T20:36:56.748Z,5.67
2022-10-30T20:39:26.034Z,5.73
2022-10-30T20:41:55.262Z,6.27
2022-10-30T20:44:24.521Z,5.73
2022-10-30T20:46:55.046Z,6.07
2022-10-30T20:49:24.365Z,5.63
2022-10-30T20:51:53.571Z,6.07
2022-10-30T20:54:22.800Z,4.80
2022-10-30T20:56:51.984Z,4.90
2022-10-30T20:59:21.694Z,5.83
2022-10-30T21:01:50.964Z,6.07
2022-10-30T21:04:39.983Z,5.73
2022-10-30T21:07:27.782Z,6.27
2022-10-30T21:10:15.644Z,6.57
2022-10-30T21:13:05.551Z,5.30
2022-10-30T21:15:56.288Z,5.10
2022-10-30T21:18:43.723Z,5.03
2022-10-30T21:21:32.555Z,4.67
2022-10-30T21:24:20.025Z,5.03
2022-10-30T21:27:07.717Z,5.37
2022-10-30T21:29:55.614Z,5.27
2022-10-30T21:32:43.602Z,4.83
2022-10-30T21:35:30.989Z,4.40
2022-10-30T21:38:19.847Z,5.20
2022-10-30T21:41:07.403Z,5.63
2022-10-30T21:43:57.221Z,5.60
2022-10-30T21:46:45.022Z,5.87
2022-10-30T21:49:32.369Z,5.70
2022-10-30T21:52:19.922Z,5.77
2022-10-30T21:55:10.022Z,5.77
2022-10-30T21:57:58.321Z,5.90
2022-10-30T22:00:46.149Z,5.50
2022-10-30T22:03:34.553Z,5.73
2022-10-30T22:06:23.776Z,5.40
2022-10-30T22:09:12.748Z,4.87
2022-10-30T22:12:01.836Z,5.40
2022-10-30T22:14:49.619Z,5.60
2022-10-30T22:17:37.623Z,6.67
2022-10-30T22:20:25.189Z,9.63
2022-10-30T22:23:15.748Z,9.80
2022-10-30T22:26:05.550Z,8.10
2022-10-30T22:29:00.677Z,6.90
2022-10-30T22:31:48.560Z,5.80
2022-10-30T22:34:36.093Z,5.80
2022-10-30T22:37:23.641Z,5.57
2022-10-30T22:40:12.405Z,5.60
2022-10-30T22:43:00.674Z,5.13
2022-10-30T22:45:55.619Z,5.40
2022-10-30T22:48:43.359Z,5.43
2022-10-30T22:51:34.118Z,5.53
2022-10-30T22:54:21.565Z,4.93
2022-10-30T22:57:09.312Z,5.80
2022-10-30T22:59:57.100Z,5.60
2022-10-30T23:02:46.271Z,6.07
2022-10-30T23:05:33.851Z,5.83
2022-10-30T23:08:21.597Z,5.73
2022-10-30T23:11:10.160Z,5.73
2022-10-30T23:13:58.058Z,6.10
2022-10-30T23:16:45.880Z,5.53
2022-10-30T23:19:35.069Z,5.70
2022-10-30T23:22:22.755Z,5.63
2022-10-30T23:25:10.492Z,5.97
2022-10-30T23:27:58.321Z,5.80
2022-10-30T23:30:47.631Z,5.50
2022-10-30T23:33:35.954Z,5.53
2022-10-30T23:36:25.861Z,5.30
2022-10-30T23:39:17.308Z,5.50
2022-10-30T23:42:05.029Z,5.40
2022-10-30T23:44:52.516Z,5.83
2022-10-30T23:47:42.702Z,4.93
2022-10-30T23:50:30.854Z,5.53
2022-10-30T23:53:20.169Z,5.50
2022-10-30T23:56:08.594Z,4.67
2022-10-30T23:58:56.508Z,5.07
